sensor_id;sensor_type;location;lat;lon;timestamp;P1;durP1;ratioP1;P2;durP2;ratioP2
4547;SDS011;2286;51.570;7.090;2023-03-14T00:00:04;3.27;;;1.73;;
4547;SDS011;2286;51.570;7.090;2023-03-14T00:02:33;5.40;;;2.57;;
4547;SDS011;2286;51.570;7.090;2023-03-14T00:05:02;4.87;;;2.00;;
4547;SDS011;2286;51.570;7.090;2023-03-14T00:07:32;4.03;;;1.90;;
4547;SDS011;2286;51.570;7.090;2023-03-14T00:10:00;4.90;;;2.40;;
4547;SDS011;2286;51.570;7.090;2023-03-14T00:12:29;3.60;;;1.93;;
4547;SDS011;2286;51.570;7.090;2023-03-14T00:14:57;7.13;;;2.37;;
4547;SDS011;2286;51.570;7.090;2023-03-14T00:17:25;4.07;;;2.17;;
4547;SDS011;2286;51.570;7.090;2023-03-14T00:19:52;9.60;;;2.13;;
4547;SDS011;2286;51.570;7.090;2023-03-14T00:22:21;3.90;;;1.50;;
4547;SDS011;2286;51.570;7.090;2023-03-14T00:24:48;4.50;;;1.87;;
4547;SDS011;2286;51.570;7.090;2023-03-14T00:27:15;5.10;;;2.17;;
4547;SDS011;2286;51.570;7.090;2023-03-14T00:29:42;4.63;;;1.73;;
4547;SDS011;2286;51.570;7.090;2023-03-14T00:32:10;6.73;;;1.73;;
4547;SDS011;2286;51.570;7.090;2023-03-14T00:34:37;4.80;;;1.80;;
4547;SDS011;2286;51.570;7.090;2023-03-14T00:37:04;4.50;;;2.00;;
4547;SDS011;2286;51.570;7.090;2023-03-14T00:39:33;7.33;;;2.27;;
4547;SDS011;2286;51.570;7.090;2023-03-14T00:42:00;5.00;;;1.90;;
4547;SDS011;2286;51.570;7.090;2023-03-14T00:44:27;5.17;;;2.00;;
4547;SDS011;2286;51.570;7.090;2023-03-14T00:46:54;3.97;;;1.77;;
4547;SDS011;2286;51.570;7.090;2023-03-14T00:49:22;3.63;;;1.37;;
4547;SDS011;2286;51.570;7.090;2023-03-14T00:51:49;4.70;;;1.80;;
4547;SDS011;2286;51.570;7.090;2023-03-14T00:54:16;4.77;;;2.03;;
4547;SDS011;2286;51.570;7.090;2023-03-14T00:56:44;9.23;;;2.20;;
4547;SDS011;2286;51.570;7.090;2023-03-14T00:59:12;3.10;;;1.67;;
4547;SDS011;2286;51.570;7.090;2023-03-14T01:01:39;5.10;;;2.20;;
4547;SDS011;2286;51.570;7.090;2023-03-14T01:04:07;4.97;;;1.70;;
4547;SDS011;2286;51.570;7.090;2023-03-14T01:06:34;0.40;;;0.30;;
4547;SDS011;2286;51.570;7.090;2023-03-14T01:09:01;0.40;;;0.30;;
4547;SDS011;2286;51.570;7.090;2023-03-14T01:11:30;0.40;;;0.30;;
4547;SDS011;2286;51.570;7.090;2023-03-14T01:14:00;0.40;;;0.30;;
4547;SDS011;2286;51.570;7.090;2023-03-14T01:16:29;0.40;;;0.30;;
4547;SDS011;2286;51.570;7.090;2023-03-14T01:18:57;0.40;;;0.30;;
4547;SDS011;2286;51.570;7.090;2023-03-14T01:21:24;0.40;;;0.30;;
4547;SDS011;2286;51.570;7.090;2023-03-14T01:23:53;0.40;;;0.30;;
4547;SDS011;2286;51.570;7.090;2023-03-14T01:26:22;0.40;;;0.30;;
4547;SDS011;2286;51.570;7.090;2023-03-14T01:28:51;0.40;;;0.30;;
4547;SDS011;2286;51.570;7.090;2023-03-14T01:31:20;0.40;;;0.30;;
4547;SDS011;2286;51.570;7.090;2023-03-14T01:33:48;0.40;;;0.30;;
4547;SDS011;2286;51.570;7.090;2023-03-14T01:36:15;0.40;;;0.30;;
4547;SDS011;2286;51.570;7.090;2023-03-14T01:38:43;0.77;;;0.70;;
4547;SDS011;2286;51.570;7.090;2023-03-14T01:41:12;0.50;;;0.50;;
4547;SDS011;2286;51.570;7.090;2023-03-14T01:43:40;0.40;;;0.30;;
4547;SDS011;2286;51.570;7.090;2023-03-14T01:49:02;0.40;;;0.30;;
4547;SDS011;2286;51.570;7.090;2023-03-14T01:51:34;0.40;;;0.30;;
4547;SDS011;2286;51.570;7.090;2023-03-14T01:54:07;0.40;;;0.30;;
4547;SDS011;2286;51.570;7.090;2023-03-14T01:56:38;0.40;;;0.30;;
4547;SDS011;2286;51.570;7.090;2023-03-14T01:59:08;0.40;;;0.30;;
4547;SDS011;2286;51.570;7.090;2023-03-14T02:01:38;2.40;;;2.30;;
4547;SDS011;2286;51.570;7.090;2023-03-14T02:04:08;0.40;;;0.40;;
4547;SDS011;2286;51.570;7.090;2023-03-14T02:06:42;0.40;;;0.30;;
4547;SDS011;2286;51.570;7.090;2023-03-14T02:09:14;1.37;;;1.27;;
4547;SDS011;2286;51.570;7.090;2023-03-14T02:11:42;2.23;;;0.70;;
4547;SDS011;2286;51.570;7.090;2023-03-14T02:14:14;0.40;;;0.30;;
4547;SDS011;2286;51.570;7.090;2023-03-14T02:16:52;0.40;;;0.30;;
4547;SDS011;2286;51.570;7.090;2023-03-14T02:19:20;0.40;;;0.30;;
4547;SDS011;2286;51.570;7.090;2023-03-14T02:21:54;0.40;;;0.30;;
4547;SDS011;2286;51.570;7.090;2023-03-14T02:24:29;0.40;;;0.30;;
4547;SDS011;2286;51.570;7.090;2023-03-14T02:27:08;0.40;;;0.30;;
4547;SDS011;2286;51.570;7.090;2023-03-14T02:29:38;0.40;;;0.30;;
4547;SDS011;2286;51.570;7.090;2023-03-14T02:32:09;0.93;;;0.83;;
4547;SDS011;2286;51.570;7.090;2023-03-14T02:34:37;2.40;;;0.90;;
4547;SDS011;2286;51.570;7.090;2023-03-14T02:37:06;0.60;;;0.60;;
4547;SDS011;2286;51.570;7.090;2023-03-14T02:39:35;0.60;;;0.60;;
4547;SDS011;2286;51.570;7.090;2023-03-14T02:42:05;0.40;;;0.30;;
4547;SDS011;2286;51.570;7.090;2023-03-14T02:44:33;0.40;;;0.30;;
4547;SDS011;2286;51.570;7.090;2023-03-14T02:47:01;0.77;;;0.77;;
4547;SDS011;2286;51.570;7.090;2023-03-14T02:49:30;0.40;;;0.30;;
4547;SDS011;2286;51.570;7.090;2023-03-14T02:51:59;0.40;;;0.30;;
4547;SDS011;2286;51.570;7.090;2023-03-14T02:54:26;1.17;;;1.07;;
4547;SDS011;2286;51.570;7.090;2023-03-14T02:56:53;0.40;;;0.30;;
4547;SDS011;2286;51.570;7.090;2023-03-14T02:59:20;0.40;;;0.30;;
4547;SDS011;2286;51.570;7.090;2023-03-14T03:01:49;0.40;;;0.40;;
4547;SDS011;2286;51.570;7.090;2023-03-14T03:04:16;0.40;;;0.30;;
4547;SDS011;2286;51.570;7.090;2023-03-14T03:06:43;0.50;;;0.50;;
4547;SDS011;2286;51.570;7.090;2023-03-14T03:09:10;0.40;;;0.30;;
4547;SDS011;2286;51.570;7.090;2023-03-14T03:11:37;0.40;;;0.30;;
4547;SDS011;2286;51.570;7.090;2023-03-14T03:14:04;0.40;;;0.30;;
4547;SDS011;2286;51.570;7.090;2023-03-14T03:16:31;0.40;;;0.30;;
4547;SDS011;2286;51.570;7.090;2023-03-14T03:18:59;0.40;;;0.30;;
4547;SDS011;2286;51.570;7.090;2023-03-14T03:21:26;0.43;;;0.43;;
4547;SDS011;2286;51.570;7.090;2023-03-14T03:23:53;0.40;;;0.30;;
4547;SDS011;2286;51.570;7.090;2023-03-14T03:26:20;0.40;;;0.30;;
4547;SDS011;2286;51.570;7.090;2023-03-14T03:28:49;0.40;;;0.30;;
4547;SDS011;2286;51.570;7.090;2023-03-14T03:31:17;2.23;;;1.90;;
4547;SDS011;2286;51.570;7.090;2023-03-14T03:33:44;0.40;;;0.40;;
4547;SDS011;2286;51.570;7.090;2023-03-14T03:36:12;0.97;;;0.60;;
4547;SDS011;2286;51.570;7.090;2023-03-14T03:38:39;0.40;;;0.30;;
4547;SDS011;2286;51.570;7.090;2023-03-14T03:41:06;0.40;;;0.30;;
4547;SDS011;2286;51.570;7.090;2023-03-14T03:43:34;0.40;;;0.30;;
4547;SDS011;2286;51.570;7.090;2023-03-14T03:46:02;1.17;;;1.17;;
4547;SDS011;2286;51.570;7.090;2023-03-14T03:48:30;0.80;;;0.80;;
4547;SDS011;2286;51.570;7.090;2023-03-14T03:50:57;0.40;;;0.30;;
4547;SDS011;2286;51.570;7.090;2023-03-14T03:53:26;0.40;;;0.30;;
4547;SDS011;2286;51.570;7.090;2023-03-14T03:55:53;1.67;;;0.50;;
4547;SDS011;2286;51.570;7.090;2023-03-14T03:58:20;6.93;;;2.20;;
4547;SDS011;2286;51.570;7.090;2023-03-14T04:00:47;3.13;;;1.87;;
4547;SDS011;2286;51.570;7.090;2023-03-14T04:03:14;5.80;;;1.90;;
4547;SDS011;2286;51.570;7.090;2023-03-14T04:05:41;6.87;;;1.93;;
4547;SDS011;2286;51.570;7.090;2023-03-14T04:08:08;5.90;;;2.00;;
4547;SDS011;2286;51.570;7.090;2023-03-14T04:10:36;4.67;;;2.10;;
4547;SDS011;2286;51.570;7.090;2023-03-14T04:13:03;7.40;;;2.13;;
4547;SDS011;2286;51.570;7.090;2023-03-14T04:15:30;4.13;;;1.60;;
4547;SDS011;2286;51.570;7.090;2023-03-14T04:17:57;6.13;;;2.10;;
4547;SDS011;2286;51.570;7.090;2023-03-14T04:20:25;7.60;;;2.13;;
4547;SDS011;2286;51.570;7.090;2023-03-14T04:22:52;5.30;;;2.07;;
4547;SDS011;2286;51.570;7.090;2023-03-14T04:25:19;8.60;;;2.27;;
4547;SDS011;2286;51.570;7.090;2023-03-14T04:27:47;6.80;;;2.13;;
4547;SDS011;2286;51.570;7.090;2023-03-14T04:30:14;10.53;;;2.07;;
4547;SDS011;2286;51.570;7.090;2023-03-14T04:32:41;6.33;;;1.83;;
4547;SDS011;2286;51.570;7.090;2023-03-14T04:35:08;8.87;;;2.37;;
4547;SDS011;2286;51.570;7.090;2023-03-14T04:37:36;6.67;;;2.00;;
4547;SDS011;2286;51.570;7.090;2023-03-14T04:40:03;7.10;;;1.27;;
4547;SDS011;2286;51.570;7.090;2023-03-14T04:42:31;4.20;;;1.30;;
4547;SDS011;2286;51.570;7.090;2023-03-14T04:45:00;6.03;;;2.90;;
4547;SDS011;2286;51.570;7.090;2023-03-14T04:47:27;4.73;;;0.90;;
4547;SDS011;2286;51.570;7.090;2023-03-14T04:49:54;0.40;;;0.30;;
4547;SDS011;2286;51.570;7.090;2023-03-14T04:52:21;0.40;;;0.30;;
4547;SDS011;2286;51.570;7.090;2023-03-14T04:54:48;0.40;;;0.30;;
4547;SDS011;2286;51.570;7.090;2023-03-14T04:57:15;0.40;;;0.30;;
4547;SDS011;2286;51.570;7.090;2023-03-14T04:59:43;0.40;;;0.40;;
4547;SDS011;2286;51.570;7.090;2023-03-14T05:02:11;0.40;;;0.30;;
4547;SDS011;2286;51.570;7.090;2023-03-14T05:04:38;0.40;;;0.30;;
4547;SDS011;2286;51.570;7.090;2023-03-14T05:07:05;0.40;;;0.40;;
4547;SDS011;2286;51.570;7.090;2023-03-14T05:09:32;0.40;;;0.30;;
4547;SDS011;2286;51.570;7.090;2023-03-14T05:11:59;0.40;;;0.30;;
4547;SDS011;2286;51.570;7.090;2023-03-14T05:14:26;0.40;;;0.30;;
4547;SDS011;2286;51.570;7.090;2023-03-14T05:16:53;0.40;;;0.30;;
4547;SDS011;2286;51.570;7.090;2023-03-14T05:19:22;0.40;;;0.30;;
4547;SDS011;2286;51.570;7.090;2023-03-14T05:21:49;0.40;;;0.30;;
4547;SDS011;2286;51.570;7.090;2023-03-14T05:24:16;0.40;;;0.30;;
4547;SDS011;2286;51.570;7.090;2023-03-14T05:26:43;0.40;;;0.30;;
4547;SDS011;2286;51.570;7.090;2023-03-14T05:29:10;0.40;;;0.30;;
4547;SDS011;2286;51.570;7.090;2023-03-14T05:31:37;0.40;;;0.30;;
4547;SDS011;2286;51.570;7.090;2023-03-14T05:34:05;0.40;;;0.30;;
4547;SDS011;2286;51.570;7.090;2023-03-14T05:36:33;1.13;;;1.03;;
4547;SDS011;2286;51.570;7.090;2023-03-14T05:39:00;0.40;;;0.30;;
4547;SDS011;2286;51.570;7.090;2023-03-14T05:41:27;0.40;;;0.30;;
4547;SDS011;2286;51.570;7.090;2023-03-14T05:43:55;0.40;;;0.30;;
4547;SDS011;2286;51.570;7.090;2023-03-14T05:46:21;0.40;;;0.30;;
4547;SDS011;2286;51.570;7.090;2023-03-14T05:48:49;0.40;;;0.30;;
4547;SDS011;2286;51.570;7.090;2023-03-14T05:51:16;0.77;;;0.77;;
4547;SDS011;2286;51.570;7.090;2023-03-14T05:53:44;0.40;;;0.30;;
4547;SDS011;2286;51.570;7.090;2023-03-14T05:56:11;0.40;;;0.30;;
4547;SDS011;2286;51.570;7.090;2023-03-14T05:58:38;0.40;;;0.30;;
4547;SDS011;2286;51.570;7.090;2023-03-14T06:01:05;0.40;;;0.30;;
4547;SDS011;2286;51.570;7.090;2023-03-14T06:03:33;0.40;;;0.40;;
4547;SDS011;2286;51.570;7.090;2023-03-14T06:06:00;0.40;;;0.30;;
4547;SDS011;2286;51.570;7.090;2023-03-14T06:08:27;0.40;;;0.30;;
4547;SDS011;2286;51.570;7.090;2023-03-14T06:10:56;0.40;;;0.30;;
4547;SDS011;2286;51.570;7.090;2023-03-14T06:13:23;0.40;;;0.30;;
4547;SDS011;2286;51.570;7.090;2023-03-14T06:15:50;0.40;;;0.30;;
4547;SDS011;2286;51.570;7.090;2023-03-14T06:18:17;0.40;;;0.30;;
4547;SDS011;2286;51.570;7.090;2023-03-14T06:20:44;0.40;;;0.30;;
4547;SDS011;2286;51.570;7.090;2023-03-14T06:23:12;0.40;;;0.30;;
4547;SDS011;2286;51.570;7.090;2023-03-14T06:25:39;0.40;;;0.30;;
4547;SDS011;2286;51.570;7.090;2023-03-14T06:28:07;0.40;;;0.30;;
4547;SDS011;2286;51.570;7.090;2023-03-14T06:30:34;0.50;;;0.50;;
4547;SDS011;2286;51.570;7.090;2023-03-14T06:33:01;0.40;;;0.30;;
4547;SDS011;2286;51.570;7.090;2023-03-14T06:35:28;0.40;;;0.40;;
4547;SDS011;2286;51.570;7.090;2023-03-14T06:37:55;0.40;;;0.40;;
4547;SDS011;2286;51.570;7.090;2023-03-14T06:40:22;0.40;;;0.30;;
4547;SDS011;2286;51.570;7.090;2023-03-14T06:42:49;0.40;;;0.30;;
4547;SDS011;2286;51.570;7.090;2023-03-14T06:45:18;0.60;;;0.50;;
4547;SDS011;2286;51.570;7.090;2023-03-14T06:47:45;0.40;;;0.40;;
4547;SDS011;2286;51.570;7.090;2023-03-14T06:50:12;1.33;;;1.23;;
4547;SDS011;2286;51.570;7.090;2023-03-14T06:52:39;0.40;;;0.30;;
4547;SDS011;2286;51.570;7.090;2023-03-14T06:55:11;1.90;;;1.23;;
4547;SDS011;2286;51.570;7.090;2023-03-14T06:57:38;0.40;;;0.30;;
4547;SDS011;2286;51.570;7.090;2023-03-14T07:00:05;0.40;;;0.40;;
4547;SDS011;2286;51.570;7.090;2023-03-14T07:02:35;0.40;;;0.30;;
4547;SDS011;2286;51.570;7.090;2023-03-14T07:05:03;0.40;;;0.30;;
4547;SDS011;2286;51.570;7.090;2023-03-14T07:07:31;0.40;;;0.30;;
4547;SDS011;2286;51.570;7.090;2023-03-14T07:09:57;0.40;;;0.30;;
4547;SDS011;2286;51.570;7.090;2023-03-14T07:12:24;0.40;;;0.30;;
4547;SDS011;2286;51.570;7.090;2023-03-14T07:14:51;0.40;;;0.30;;
4547;SDS011;2286;51.570;7.090;2023-03-14T07:17:18;0.40;;;0.30;;
4547;SDS011;2286;51.570;7.090;2023-03-14T07:19:47;0.40;;;0.30;;
4547;SDS011;2286;51.570;7.090;2023-03-14T07:22:14;0.40;;;0.30;;
4547;SDS011;2286;51.570;7.090;2023-03-14T07:24:41;0.40;;;0.30;;
4547;SDS011;2286;51.570;7.090;2023-03-14T07:27:08;0.40;;;0.30;;
4547;SDS011;2286;51.570;7.090;2023-03-14T07:29:35;0.40;;;0.30;;
4547;SDS011;2286;51.570;7.090;2023-03-14T07:32:02;0.50;;;0.40;;
4547;SDS011;2286;51.570;7.090;2023-03-14T07:34:29;0.73;;;0.63;;
4547;SDS011;2286;51.570;7.090;2023-03-14T07:36:57;0.40;;;0.40;;
4547;SDS011;2286;51.570;7.090;2023-03-14T07:39:24;0.40;;;0.30;;
4547;SDS011;2286;51.570;7.090;2023-03-14T07:41:51;0.53;;;0.53;;
4547;SDS011;2286;51.570;7.090;2023-03-14T07:44:19;0.40;;;0.40;;
4547;SDS011;2286;51.570;7.090;2023-03-14T07:46:46;0.40;;;0.40;;
4547;SDS011;2286;51.570;7.090;2023-03-14T07:49:13;0.40;;;0.30;;
4547;SDS011;2286;51.570;7.090;2023-03-14T07:51:40;0.40;;;0.30;;
4547;SDS011;2286;51.570;7.090;2023-03-14T07:54:10;0.40;;;0.30;;
4547;SDS011;2286;51.570;7.090;2023-03-14T07:56:37;0.40;;;0.30;;
4547;SDS011;2286;51.570;7.090;2023-03-14T07:59:04;0.40;;;0.30;;
4547;SDS011;2286;51.570;7.090;2023-03-14T08:01:31;0.40;;;0.30;;
4547;SDS011;2286;51.570;7.090;2023-03-14T08:03:58;3.57;;;2.27;;
4547;SDS011;2286;51.570;7.090;2023-03-14T08:06:25;0.40;;;0.30;;
4547;SDS011;2286;51.570;7.090;2023-03-14T08:08:52;0.40;;;0.40;;
4547;SDS011;2286;51.570;7.090;2023-03-14T08:11:21;0.40;;;0.30;;
4547;SDS011;2286;51.570;7.090;2023-03-14T08:13:48;0.40;;;0.40;;
4547;SDS011;2286;51.570;7.090;2023-03-14T08:16:16;0.40;;;0.30;;
4547;SDS011;2286;51.570;7.090;2023-03-14T08:18:44;0.40;;;0.30;;
4547;SDS011;2286;51.570;7.090;2023-03-14T08:21:11;0.40;;;0.40;;
4547;SDS011;2286;51.570;7.090;2023-03-14T08:23:39;0.40;;;0.37;;
4547;SDS011;2286;51.570;7.090;2023-03-14T08:26:06;0.40;;;0.30;;
4547;SDS011;2286;51.570;7.090;2023-03-14T08:28:35;0.40;;;0.30;;
4547;SDS011;2286;51.570;7.090;2023-03-14T08:31:02;0.40;;;0.30;;
4547;SDS011;2286;51.570;7.090;2023-03-14T08:33:29;0.60;;;0.60;;
4547;SDS011;2286;51.570;7.090;2023-03-14T08:35:57;0.70;;;0.70;;
4547;SDS011;2286;51.570;7.090;2023-03-14T08:38:26;0.40;;;0.30;;
4547;SDS011;2286;51.570;7.090;2023-03-14T08:40:56;0.40;;;0.40;;
4547;SDS011;2286;51.570;7.090;2023-03-14T08:43:24;0.80;;;0.80;;
4547;SDS011;2286;51.570;7.090;2023-03-14T08:45:53;0.50;;;0.47;;
4547;SDS011;2286;51.570;7.090;2023-03-14T08:50:43;0.40;;;0.40;;
4547;SDS011;2286;51.570;7.090;2023-03-14T08:53:10;0.40;;;0.40;;
4547;SDS011;2286;51.570;7.090;2023-03-14T09:08:49;0.40;;;0.30;;
4547;SDS011;2286;51.570;7.090;2023-03-14T09:11:16;0.40;;;0.30;;
4547;SDS011;2286;51.570;7.090;2023-03-14T09:13:43;0.40;;;0.40;;
4547;SDS011;2286;51.570;7.090;2023-03-14T09:16:10;0.70;;;0.70;;
4547;SDS011;2286;51.570;7.090;2023-03-14T09:18:38;0.40;;;0.30;;
4547;SDS011;2286;51.570;7.090;2023-03-14T09:21:05;0.50;;;0.50;;
4547;SDS011;2286;51.570;7.090;2023-03-14T09:23:32;0.40;;;0.40;;
4547;SDS011;2286;51.570;7.090;2023-03-14T09:26:01;0.50;;;0.50;;
4547;SDS011;2286;51.570;7.090;2023-03-14T09:28:28;0.40;;;0.30;;
4547;SDS011;2286;51.570;7.090;2023-03-14T09:30:55;0.40;;;0.30;;
4547;SDS011;2286;51.570;7.090;2023-03-14T09:33:23;0.40;;;0.30;;
4547;SDS011;2286;51.570;7.090;2023-03-14T09:35:50;0.40;;;0.30;;
4547;SDS011;2286;51.570;7.090;2023-03-14T09:38:17;0.40;;;0.30;;
4547;SDS011;2286;51.570;7.090;2023-03-14T09:40:45;0.40;;;0.30;;
4547;SDS011;2286;51.570;7.090;2023-03-14T09:43:15;0.40;;;0.30;;
4547;SDS011;2286;51.570;7.090;2023-03-14T09:45:42;0.40;;;0.40;;
4547;SDS011;2286;51.570;7.090;2023-03-14T09:48:14;0.40;;;0.40;;
4547;SDS011;2286;51.570;7.090;2023-03-14T09:50:44;0.40;;;0.40;;
4547;SDS011;2286;51.570;7.090;2023-03-14T09:53:15;0.40;;;0.30;;
4547;SDS011;2286;51.570;7.090;2023-03-14T09:55:45;0.43;;;0.40;;
4547;SDS011;2286;51.570;7.090;2023-03-14T09:58:16;0.60;;;0.60;;
4547;SDS011;2286;51.570;7.090;2023-03-14T10:00:45;0.40;;;0.30;;
4547;SDS011;2286;51.570;7.090;2023-03-14T10:03:24;0.40;;;0.30;;
4547;SDS011;2286;51.570;7.090;2023-03-14T10:05:58;0.40;;;0.30;;
4547;SDS011;2286;51.570;7.090;2023-03-14T10:08:25;0.40;;;0.30;;
4547;SDS011;2286;51.570;7.090;2023-03-14T10:10:52;0.40;;;0.30;;
4547;SDS011;2286;51.570;7.090;2023-03-14T10:13:23;0.40;;;0.30;;
4547;SDS011;2286;51.570;7.090;2023-03-14T10:15:53;0.40;;;0.30;;
4547;SDS011;2286;51.570;7.090;2023-03-14T10:18:22;0.40;;;0.30;;
4547;SDS011;2286;51.570;7.090;2023-03-14T10:21:01;0.40;;;0.30;;
4547;SDS011;2286;51.570;7.090;2023-03-14T10:23:30;0.40;;;0.30;;
4547;SDS011;2286;51.570;7.090;2023-03-14T10:26:02;0.40;;;0.30;;
4547;SDS011;2286;51.570;7.090;2023-03-14T10:28:34;0.40;;;0.40;;
4547;SDS011;2286;51.570;7.090;2023-03-14T10:31:05;0.40;;;0.40;;
4547;SDS011;2286;51.570;7.090;2023-03-14T10:33:33;0.40;;;0.30;;
4547;SDS011;2286;51.570;7.090;2023-03-14T10:36:02;0.40;;;0.30;;
4547;SDS011;2286;51.570;7.090;2023-03-14T10:38:32;0.40;;;0.30;;
4547;SDS011;2286;51.570;7.090;2023-03-14T10:41:00;0.40;;;0.30;;
4547;SDS011;2286;51.570;7.090;2023-03-14T10:43:30;0.40;;;0.30;;
4547;SDS011;2286;51.570;7.090;2023-03-14T10:46:05;0.40;;;0.40;;
4547;SDS011;2286;51.570;7.090;2023-03-14T10:48:35;0.57;;;0.57;;
4547;SDS011;2286;51.570;7.090;2023-03-14T10:51:04;0.40;;;0.30;;
4547;SDS011;2286;51.570;7.090;2023-03-14T10:53:33;0.40;;;0.30;;
4547;SDS011;2286;51.570;7.090;2023-03-14T10:56:05;0.40;;;0.30;;
4547;SDS011;2286;51.570;7.090;2023-03-14T10:58:33;0.40;;;0.30;;
4547;SDS011;2286;51.570;7.090;2023-03-14T11:01:09;0.40;;;0.30;;
4547;SDS011;2286;51.570;7.090;2023-03-14T11:03:57;0.40;;;0.30;;
4547;SDS011;2286;51.570;7.090;2023-03-14T11:06:32;0.40;;;0.30;;
4547;SDS011;2286;51.570;7.090;2023-03-14T11:09:06;0.40;;;0.30;;
4547;SDS011;2286;51.570;7.090;2023-03-14T11:11:39;0.40;;;0.30;;
4547;SDS011;2286;51.570;7.090;2023-03-14T11:14:11;0.40;;;0.30;;
4547;SDS011;2286;51.570;7.090;2023-03-14T11:16:49;0.40;;;0.30;;
4547;SDS011;2286;51.570;7.090;2023-03-14T11:19:23;0.50;;;0.47;;
4547;SDS011;2286;51.570;7.090;2023-03-14T11:22:06;0.40;;;0.30;;
4547;SDS011;2286;51.570;7.090;2023-03-14T11:24:45;0.40;;;0.30;;
4547;SDS011;2286;51.570;7.090;2023-03-14T11:27:42;0.40;;;0.30;;
4547;SDS011;2286;51.570;7.090;2023-03-14T11:30:16;0.40;;;0.30;;
4547;SDS011;2286;51.570;7.090;2023-03-14T11:32:48;0.40;;;0.30;;
4547;SDS011;2286;51.570;7.090;2023-03-14T11:35:22;0.40;;;0.30;;
4547;SDS011;2286;51.570;7.090;2023-03-14T11:37:53;0.40;;;0.40;;
4547;SDS011;2286;51.570;7.090;2023-03-14T11:40:23;0.40;;;0.30;;
4547;SDS011;2286;51.570;7.090;2023-03-14T11:42:55;0.40;;;0.30;;
4547;SDS011;2286;51.570;7.090;2023-03-14T11:45:34;0.40;;;0.30;;
4547;SDS011;2286;51.570;7.090;2023-03-14T11:48:10;0.40;;;0.30;;
4547;SDS011;2286;51.570;7.090;2023-03-14T11:50:53;0.40;;;0.40;;
4547;SDS011;2286;51.570;7.090;2023-03-14T11:53:25;0.40;;;0.40;;
4547;SDS011;2286;51.570;7.090;2023-03-14T11:56:08;0.40;;;0.30;;
4547;SDS011;2286;51.570;7.090;2023-03-14T11:58:39;0.40;;;0.30;;
4547;SDS011;2286;51.570;7.090;2023-03-14T12:01:14;0.40;;;0.30;;
4547;SDS011;2286;51.570;7.090;2023-03-14T12:03:49;0.40;;;0.30;;
4547;SDS011;2286;51.570;7.090;2023-03-14T12:06:25;0.40;;;0.30;;
4547;SDS011;2286;51.570;7.090;2023-03-14T12:08:59;0.50;;;0.40;;
4547;SDS011;2286;51.570;7.090;2023-03-14T12:11:33;0.40;;;0.30;;
4547;SDS011;2286;51.570;7.090;2023-03-14T12:14:15;0.40;;;0.30;;
4547;SDS011;2286;51.570;7.090;2023-03-14T12:16:49;2.93;;;1.10;;
4547;SDS011;2286;51.570;7.090;2023-03-14T12:19:33;3.30;;;1.10;;
4547;SDS011;2286;51.570;7.090;2023-03-14T12:22:07;3.13;;;1.17;;
4547;SDS011;2286;51.570;7.090;2023-03-14T12:24:45;4.40;;;1.70;;
4547;SDS011;2286;51.570;7.090;2023-03-14T12:30:14;3.40;;;1.10;;
4547;SDS011;2286;51.570;7.090;2023-03-14T12:35:56;8.30;;;1.23;;
4547;SDS011;2286;51.570;7.090;2023-03-14T12:38:29;3.10;;;1.10;;
4547;SDS011;2286;51.570;7.090;2023-03-14T12:41:12;3.87;;;1.33;;
4547;SDS011;2286;51.570;7.090;2023-03-14T12:43:41;5.73;;;1.90;;
4547;SDS011;2286;51.570;7.090;2023-03-14T12:46:14;4.63;;;1.40;;
4547;SDS011;2286;51.570;7.090;2023-03-14T12:48:46;7.90;;;1.70;;
4547;SDS011;2286;51.570;7.090;2023-03-14T12:51:17;5.73;;;1.20;;
4547;SDS011;2286;51.570;7.090;2023-03-14T12:56:45;5.13;;;1.60;;
4547;SDS011;2286;51.570;7.090;2023-03-14T12:59:31;8.63;;;1.63;;
4547;SDS011;2286;51.570;7.090;2023-03-14T13:02:00;5.20;;;1.80;;
4547;SDS011;2286;51.570;7.090;2023-03-14T13:04:43;6.43;;;1.73;;
4547;SDS011;2286;51.570;7.090;2023-03-14T13:07:13;5.10;;;1.70;;
4547;SDS011;2286;51.570;7.090;2023-03-14T13:10:00;11.30;;;2.07;;
4547;SDS011;2286;51.570;7.090;2023-03-14T13:12:34;5.77;;;2.17;;
4547;SDS011;2286;51.570;7.090;2023-03-14T13:15:13;8.67;;;2.40;;
4547;SDS011;2286;51.570;7.090;2023-03-14T13:17:46;10.70;;;2.13;;
4547;SDS011;2286;51.570;7.090;2023-03-14T13:20:16;14.00;;;3.47;;
4547;SDS011;2286;51.570;7.090;2023-03-14T13:22:49;10.60;;;2.03;;
4547;SDS011;2286;51.570;7.090;2023-03-14T13:25:17;8.93;;;2.30;;
4547;SDS011;2286;51.570;7.090;2023-03-14T13:27:46;11.50;;;2.50;;
4547;SDS011;2286;51.570;7.090;2023-03-14T13:33:06;8.50;;;2.90;;
4547;SDS011;2286;51.570;7.090;2023-03-14T13:35:39;9.17;;;2.60;;
4547;SDS011;2286;51.570;7.090;2023-03-14T13:38:15;9.30;;;2.67;;
4547;SDS011;2286;51.570;7.090;2023-03-14T13:40:44;9.53;;;2.40;;
4547;SDS011;2286;51.570;7.090;2023-03-14T13:43:16;14.10;;;3.57;;
4547;SDS011;2286;51.570;7.090;2023-03-14T13:45:47;25.73;;;4.23;;
4547;SDS011;2286;51.570;7.090;2023-03-14T13:48:19;11.13;;;2.40;;
4547;SDS011;2286;51.570;7.090;2023-03-14T13:50:51;6.57;;;2.43;;
4547;SDS011;2286;51.570;7.090;2023-03-14T13:53:22;5.73;;;2.20;;
4547;SDS011;2286;51.570;7.090;2023-03-14T13:55:50;7.47;;;2.50;;
4547;SDS011;2286;51.570;7.090;2023-03-14T13:58:24;7.60;;;2.97;;
4547;SDS011;2286;51.570;7.090;2023-03-14T14:01:00;12.50;;;2.80;;
4547;SDS011;2286;51.570;7.090;2023-03-14T14:03:31;9.93;;;3.20;;
4547;SDS011;2286;51.570;7.090;2023-03-14T14:06:00;11.40;;;2.90;;
4547;SDS011;2286;51.570;7.090;2023-03-14T14:08:29;9.47;;;2.90;;
4547;SDS011;2286;51.570;7.090;2023-03-14T14:10:58;6.53;;;2.70;;
4547;SDS011;2286;51.570;7.090;2023-03-14T14:13:28;9.97;;;2.53;;
4547;SDS011;2286;51.570;7.090;2023-03-14T14:15:57;15.20;;;3.30;;
4547;SDS011;2286;51.570;7.090;2023-03-14T14:18:27;10.83;;;3.33;;
4547;SDS011;2286;51.570;7.090;2023-03-14T14:20:56;14.53;;;3.43;;
4547;SDS011;2286;51.570;7.090;2023-03-14T14:23:24;9.90;;;3.53;;
4547;SDS011;2286;51.570;7.090;2023-03-14T14:25:55;10.80;;;3.00;;
4547;SDS011;2286;51.570;7.090;2023-03-14T14:28:24;8.73;;;2.30;;
4547;SDS011;2286;51.570;7.090;2023-03-14T14:31:00;8.20;;;2.33;;
4547;SDS011;2286;51.570;7.090;2023-03-14T14:33:29;8.40;;;2.43;;
4547;SDS011;2286;51.570;7.090;2023-03-14T14:36:03;4.77;;;1.70;;
4547;SDS011;2286;51.570;7.090;2023-03-14T14:38:31;6.10;;;2.07;;
4547;SDS011;2286;51.570;7.090;2023-03-14T14:41:01;7.30;;;2.10;;
4547;SDS011;2286;51.570;7.090;2023-03-14T14:43:29;8.80;;;2.30;;
4547;SDS011;2286;51.570;7.090;2023-03-14T14:46:05;11.30;;;2.57;;
4547;SDS011;2286;51.570;7.090;2023-03-14T14:48:35;8.77;;;2.20;;
4547;SDS011;2286;51.570;7.090;2023-03-14T14:51:04;10.03;;;2.37;;
4547;SDS011;2286;51.570;7.090;2023-03-14T14:53:35;7.07;;;2.47;;
4547;SDS011;2286;51.570;7.090;2023-03-14T14:56:06;10.47;;;2.50;;
4547;SDS011;2286;51.570;7.090;2023-03-14T14:58:41;9.00;;;2.37;;
4547;SDS011;2286;51.570;7.090;2023-03-14T15:01:11;6.30;;;2.10;;
4547;SDS011;2286;51.570;7.090;2023-03-14T15:03:41;8.17;;;1.70;;
4547;SDS011;2286;51.570;7.090;2023-03-14T15:06:10;9.00;;;2.40;;
4547;SDS011;2286;51.570;7.090;2023-03-14T15:08:38;8.43;;;1.90;;
4547;SDS011;2286;51.570;7.090;2023-03-14T15:11:08;5.33;;;1.60;;
4547;SDS011;2286;51.570;7.090;2023-03-14T15:13:39;7.57;;;2.17;;
4547;SDS011;2286;51.570;7.090;2023-03-14T15:16:08;8.90;;;2.13;;
4547;SDS011;2286;51.570;7.090;2023-03-14T15:18:36;8.50;;;2.13;;
4547;SDS011;2286;51.570;7.090;2023-03-14T15:21:03;5.93;;;1.43;;
4547;SDS011;2286;51.570;7.090;2023-03-14T15:23:31;4.20;;;1.63;;
4547;SDS011;2286;51.570;7.090;2023-03-14T15:25:58;6.77;;;2.30;;
4547;SDS011;2286;51.570;7.090;2023-03-14T15:28:27;4.43;;;1.80;;
4547;SDS011;2286;51.570;7.090;2023-03-14T15:30:56;5.60;;;1.83;;
4547;SDS011;2286;51.570;7.090;2023-03-14T15:33:24;6.73;;;1.60;;
4547;SDS011;2286;51.570;7.090;2023-03-14T15:35:52;8.23;;;1.97;;
4547;SDS011;2286;51.570;7.090;2023-03-14T15:38:20;4.87;;;1.90;;
4547;SDS011;2286;51.570;7.090;2023-03-14T15:40:48;5.43;;;1.87;;
4547;SDS011;2286;51.570;7.090;2023-03-14T15:43:15;2.10;;;1.77;;
4547;SDS011;2286;51.570;7.090;2023-03-14T15:57:38;5.93;;;1.27;;
4547;SDS011;2286;51.570;7.090;2023-03-14T16:00:09;7.00;;;1.67;;
4547;SDS011;2286;51.570;7.090;2023-03-14T16:02:39;4.33;;;1.50;;
4547;SDS011;2286;51.570;7.090;2023-03-14T16:05:07;3.60;;;1.70;;
4547;SDS011;2286;51.570;7.090;2023-03-14T16:07:35;6.13;;;1.80;;
4547;SDS011;2286;51.570;7.090;2023-03-14T16:10:04;5.00;;;1.53;;